createdAt,value
2023-01-12T00:01:46.122Z,7.65
2023-01-12T00:04:13.999Z,7.72
2023-01-12T00:06:41.322Z,7.76
2023-01-12T00:09:09.834Z,7.81
2023-01-12T00:11:37.745Z,7.87
2023-01-12T00:14:06.327Z,7.89
2023-01-12T00:16:39.891Z,7.94
2023-01-12T00:19:15.501Z,8.00
2023-01-12T00:21:46.315Z,8.04
2023-01-12T00:24:13.746Z,8.11
2023-01-12T00:26:40.552Z,8.13
2023-01-12T00:29:07.253Z,8.14
2023-01-12T00:31:33.989Z,8.12
2023-01-12T00:34:00.723Z,8.14
2023-01-12T00:36:27.489Z,8.14
2023-01-12T00:38:54.302Z,8.13
2023-01-12T00:41:39.706Z,8.11
2023-01-12T00:44:25.246Z,8.11
2023-01-12T00:46:53.154Z,8.13
2023-01-12T00:49:20.012Z,8.11
2023-01-12T00:51:46.902Z,8.11
2023-01-12T00:54:13.728Z,8.14
2023-01-12T00:56:40.506Z,8.13
2023-01-12T00:59:07.640Z,8.11
2023-01-12T01:01:34.981Z,8.11
2023-01-12T01:04:02.563Z,8.10
2023-01-12T01:06:29.360Z,8.11
2023-01-12T01:08:56.177Z,8.12
2023-01-12T01:11:23.147Z,8.12
2023-01-12T01:13:51.153Z,8.12
2023-01-12T01:16:18.630Z,8.14
2023-01-12T01:18:45.839Z,8.18
2023-01-12T01:21:14.389Z,8.18
2023-01-12T01:23:42.792Z,8.20
2023-01-12T01:26:13.251Z,8.24
2023-01-12T01:28:41.225Z,8.26
2023-01-12T01:31:17.427Z,8.26
2023-01-12T01:33:44.597Z,8.29
2023-01-12T01:36:12.313Z,8.32
2023-01-12T01:38:39.593Z,8.33
2023-01-12T01:41:07.606Z,8.33
2023-01-12T01:43:50.665Z,8.34
2023-01-12T01:46:27.465Z,8.36
2023-01-12T01:48:54.761Z,8.39
2023-01-12T01:51:22.349Z,8.39
2023-01-12T01:53:50.539Z,8.41
2023-01-12T01:56:25.437Z,8.40
2023-01-12T01:59:03.114Z,8.41
2023-01-12T02:01:30.155Z,8.42
2023-01-12T02:03:57.661Z,8.41
2023-01-12T02:06:26.208Z,8.47
2023-01-12T02:08:57.964Z,8.50
2023-01-12T02:11:44.502Z,8.50
2023-01-12T02:14:30.702Z,8.51
2023-01-12T02:17:09.326Z,8.56
2023-01-12T02:20:12.793Z,8.56
2023-01-12T02:22:48.060Z,8.54
2023-01-12T02:25:26.906Z,8.53
2023-01-12T02:28:50.759Z,8.52
2023-01-12T02:31:42.066Z,8.54
2023-01-12T02:34:26.893Z,8.54
2023-01-12T02:37:00.854Z,8.52
2023-01-12T02:39:44.982Z,8.51
2023-01-12T02:42:42.110Z,8.51
2023-01-12T02:45:47.923Z,8.50
2023-01-12T02:48:26.023Z,8.49
2023-01-12T02:51:05.485Z,8.48
2023-01-12T02:53:50.171Z,8.48
2023-01-12T02:56:25.228Z,8.50
2023-01-12T02:58:56.478Z,8.51
2023-01-12T03:01:26.430Z,8.50
2023-01-12T03:04:00.396Z,8.53
2023-01-12T03:06:41.731Z,8.54
2023-01-12T03:09:08.756Z,8.52
2023-01-12T03:11:40.295Z,8.51
2023-01-12T03:14:09.744Z,8.52
2023-01-12T03:16:39.045Z,8.48
2023-01-12T03:19:09.709Z,8.47
2023-01-12T03:21:40.326Z,8.46
2023-01-12T03:24:14.361Z,8.46
2023-01-12T03:26:49.233Z,8.46
2023-01-12T03:29:37.745Z,8.44
2023-01-12T03:32:04.843Z,8.46
2023-01-12T03:34:33.299Z,8.45
2023-01-12T03:37:31.058Z,8.43
2023-01-12T03:40:19.056Z,8.45
2023-01-12T03:43:13.395Z,8.43
2023-01-12T03:45:50.038Z,8.46
2023-01-12T03:48:29.895Z,8.47
2023-01-12T03:51:10.458Z,8.48
2023-01-12T03:53:40.016Z,8.50
2023-01-12T03:56:09.285Z,8.48
2023-01-12T03:58:36.859Z,8.52
2023-01-12T04:01:05.011Z,8.52
2023-01-12T04:03:31.864Z,8.55
2023-01-12T04:05:58.668Z,8.54
2023-01-12T04:08:25.463Z,8.54
2023-01-12T04:10:52.174Z,8.51
2023-01-12T04:13:18.947Z,8.51
2023-01-12T04:15:47.044Z,8.53
2023-01-12T04:18:13.877Z,8.54
2023-01-12T04:20:41.043Z,8.55
2023-01-12T04:23:08.114Z,8.55
2023-01-12T04:25:35.617Z,8.54
2023-01-12T04:28:02.660Z,8.55
2023-01-12T04:30:31.693Z,8.57
2023-01-12T04:33:01.263Z,8.60
2023-01-12T04:35:28.040Z,8.60
2023-01-12T04:37:54.995Z,8.60
2023-01-12T04:40:21.859Z,8.62
2023-01-12T04:43:07.172Z,8.64
2023-01-12T04:45:37.174Z,8.65
2023-01-12T04:48:12.009Z,8.65
2023-01-12T04:50:40.246Z,8.65
2023-01-12T04:53:09.503Z,8.65
2023-01-12T04:55:38.002Z,8.66
2023-01-12T04:58:04.818Z,8.66
2023-01-12T05:00:31.861Z,8.70
2023-01-12T05:03:02.018Z,8.73
2023-01-12T05:05:30.451Z,8.74
2023-01-12T05:08:23.360Z,8.73
2023-01-12T05:10:53.482Z,8.75
2023-01-12T05:13:21.402Z,8.80
2023-01-12T05:15:48.068Z,8.80
2023-01-12T05:18:15.498Z,8.79
2023-01-12T05:20:42.235Z,8.78
2023-01-12T05:23:09.030Z,8.78
2023-01-12T05:25:35.742Z,8.78
2023-01-12T05:28:02.790Z,8.78
2023-01-12T05:30:31.943Z,8.74
2023-01-12T05:32:59.141Z,8.71
2023-01-12T05:35:26.041Z,8.68
2023-01-12T05:37:55.985Z,8.69
2023-01-12T05:40:22.809Z,8.68
2023-01-12T05:43:11.145Z,8.67
2023-01-12T05:45:38.127Z,8.66
2023-01-12T05:48:05.580Z,8.65
2023-01-12T05:50:32.477Z,8.61
2023-01-12T05:52:59.235Z,8.59
2023-01-12T05:55:26.155Z,8.57
2023-01-12T05:57:52.877Z,8.57
2023-01-12T06:00:19.949Z,8.57
2023-01-12T06:02:46.883Z,8.57
2023-01-12T06:05:13.798Z,8.57
2023-01-12T06:07:40.537Z,8.55
2023-01-12T06:10:07.882Z,8.56
2023-01-12T06:12:53.543Z,8.58
2023-01-12T06:15:20.346Z,8.57
2023-01-12T06:17:47.316Z,8.56
2023-01-12T06:20:16.987Z,8.58
2023-01-12T06:22:45.037Z,8.57
2023-01-12T06:25:15.145Z,8.58
2023-01-12T06:27:42.165Z,8.59
2023-01-12T06:30:09.802Z,8.57
2023-01-12T06:32:37.002Z,8.60
2023-01-12T06:35:18.009Z,8.61
2023-01-12T06:37:45.653Z,8.62
2023-01-12T06:40:12.949Z,8.68
2023-01-12T06:42:41.990Z,8.68
2023-01-12T06:45:10.336Z,8.70
2023-01-12T06:47:48.658Z,8.73
2023-01-12T06:50:16.120Z,8.73
2023-01-12T06:52:42.942Z,8.75
2023-01-12T06:55:10.040Z,8.80
2023-01-12T06:57:36.866Z,8.79
2023-01-12T07:00:06.171Z,8.78
2023-01-12T07:02:33.249Z,8.80
2023-01-12T07:05:00.062Z,8.81
2023-01-12T07:07:26.947Z,8.84
2023-01-12T07:09:53.741Z,8.84
2023-01-12T07:12:20.746Z,8.85
2023-01-12T07:14:47.480Z,8.87
2023-01-12T07:17:14.530Z,8.89
2023-01-12T07:19:41.711Z,8.89
2023-01-12T07:22:08.698Z,8.89
2023-01-12T07:24:35.584Z,8.89
2023-01-12T07:27:02.360Z,8.92
2023-01-12T07:29:29.229Z,8.92
2023-01-12T07:31:56.062Z,8.95
2023-01-12T07:34:22.896Z,8.96
2023-01-12T07:36:50.976Z,8.98
2023-01-12T07:39:17.896Z,8.98
2023-01-12T07:42:03.453Z,8.99
2023-01-12T07:44:30.226Z,9.00
2023-01-12T07:46:57.022Z,9.02
2023-01-12T07:49:23.811Z,9.02
2023-01-12T07:51:53.166Z,9.05
2023-01-12T07:54:20.221Z,9.09
2023-01-12T07:56:47.035Z,9.11
2023-01-12T07:59:14.326Z,9.10
2023-01-12T08:01:41.371Z,9.12
2023-01-12T08:04:08.213Z,9.15
2023-01-12T08:06:35.304Z,9.15
2023-01-12T08:09:02.516Z,9.16
2023-01-12T08:11:30.037Z,9.16
2023-01-12T08:13:58.099Z,9.19
2023-01-12T08:16:46.648Z,9.24
2023-01-12T08:19:18.586Z,9.25
2023-01-12T08:21:50.856Z,9.26
2023-01-12T08:24:23.508Z,9.30
2023-01-12T08:26:56.480Z,9.31
2023-01-12T08:29:30.106Z,9.33
2023-01-12T08:32:03.739Z,9.34
2023-01-12T08:34:32.922Z,9.37
2023-01-12T08:37:05.570Z,9.39
2023-01-12T08:39:35.171Z,9.40
2023-01-12T08:42:02.503Z,9.39
2023-01-12T08:44:35.988Z,9.40
2023-01-12T08:47:04.661Z,9.41
2023-01-12T08:49:33.143Z,9.41
2023-01-12T08:52:00.311Z,9.42
2023-01-12T08:54:27.242Z,9.42
2023-01-12T08:56:54.785Z,9.42
2023-01-12T08:59:22.403Z,9.44
2023-01-12T09:01:49.216Z,9.47
2023-01-12T09:04:16.197Z,9.45
2023-01-12T09:06:44.680Z,9.43
2023-01-12T09:09:15.526Z,9.41
2023-01-12T09:11:43.435Z,9.41
2023-01-12T09:14:11.391Z,9.42
2023-01-12T09:16:38.164Z,9.43
2023-01-12T09:19:05.904Z,9.44
2023-01-12T09:21:35.864Z,9.45
2023-01-12T09:24:02.824Z,9.47
2023-01-12T09:26:32.245Z,9.51
2023-01-12T09:29:00.548Z,9.57
2023-01-12T09:31:29.199Z,9.59
2023-01-12T09:33:56.332Z,9.61
2023-01-12T09:36:32.354Z,9.67
2023-01-12T09:38:59.598Z,9.68
2023-01-12T09:42:06.872Z,9.73
2023-01-12T09:44:57.809Z,9.78
2023-01-12T09:47:34.397Z,9.79
2023-01-12T09:50:14.047Z,9.82
2023-01-12T09:52:47.036Z,9.81
2023-01-12T09:55:20.548Z,9.80
2023-01-12T09:57:53.262Z,9.82
2023-01-12T10:00:21.102Z,9.83
2023-01-12T10:03:02.814Z,9.82
2023-01-12T10:05:55.722Z,9.81
2023-01-12T10:08:34.190Z,9.85
2023-01-12T10:11:03.883Z,9.87
2023-01-12T10:14:02.411Z,9.90
2023-01-12T10:16:38.476Z,9.97
2023-01-12T10:19:25.359Z,9.97
2023-01-12T10:21:53.405Z,9.99
2023-01-12T10:24:25.584Z,10.02
2023-01-12T10:27:01.113Z,10.05
2023-01-12T10:29:30.575Z,10.08
2023-01-12T10:31:57.855Z,10.11
2023-01-12T10:34:24.725Z,10.17
2023-01-12T10:36:57.944Z,10.23
2023-01-12T10:39:32.636Z,10.31
2023-01-12T10:42:43.600Z,10.34
2023-01-12T10:45:13.510Z,10.40
2023-01-12T10:47:41.922Z,10.48
2023-01-12T10:50:23.788Z,10.54
2023-01-12T10:53:08.403Z,10.53
2023-01-12T10:55:39.720Z,10.52
2023-01-12T10:58:20.709Z,10.52
2023-01-12T11:00:53.641Z,10.48
2023-01-12T11:03:32.782Z,10.43
2023-01-12T11:06:16.861Z,10.39
2023-01-12T11:08:43.629Z,10.42
2023-01-12T11:11:24.973Z,10.55
2023-01-12T11:13:56.393Z,10.75
2023-01-12T11:16:35.154Z,10.93
2023-01-12T11:19:21.745Z,11.08
2023-01-12T11:21:53.882Z,11.29
2023-01-12T11:24:32.794Z,11.41
2023-01-12T11:27:13.936Z,11.62
2023-01-12T11:29:49.196Z,11.75
2023-01-12T11:32:20.961Z,11.84
2023-01-12T11:34:56.849Z,11.98
2023-01-12T11:37:24.299Z,12.06
2023-01-12T11:40:00.329Z,12.15
2023-01-12T11:42:49.872Z,12.13
2023-01-12T11:45:25.564Z,11.96
2023-01-12T11:48:02.454Z,11.81
2023-01-12T11:50:35.792Z,11.61
2023-01-12T11:53:05.782Z,11.43
2023-01-12T11:56:10.120Z,11.35
2023-01-12T11:58:56.265Z,11.35
2023-01-12T12:01:44.468Z,11.50
2023-01-12T12:04:11.328Z,11.66
2023-01-12T12:07:03.551Z,11.76
2023-01-12T12:09:57.936Z,11.65
2023-01-12T12:13:03.026Z,11.63
2023-01-12T12:15:54.662Z,11.60
2023-01-12T12:18:34.403Z,11.55
2023-01-12T12:21:40.143Z,11.55
2023-01-12T12:24:43.396Z,11.43
2023-01-12T12:27:13.350Z,11.31
2023-01-12T12:30:17.837Z,11.34
2023-01-12T12:32:55.541Z,11.50
2023-01-12T12:35:28.258Z,11.60
2023-01-12T12:38:15.219Z,11.63
2023-01-12T12:41:13.131Z,11.63
2023-01-12T12:43:58.461Z,11.57
2023-01-12T12:46:40.475Z,11.71
2023-01-12T12:49:12.941Z,11.70
2023-01-12T12:51:41.648Z,11.81
2023-01-12T12:54:17.007Z,12.04
2023-01-12T12:56:45.449Z,12.04
2023-01-12T12:59:31.064Z,12.22
2023-01-12T13:02:02.606Z,12.24
2023-01-12T13:04:46.173Z,12.36
2023-01-12T13:07:22.640Z,12.31
2023-01-12T13:09:50.305Z,12.08
2023-01-12T13:12:20.225Z,12.09
2023-01-12T13:15:26.925Z,12.05
2023-01-12T13:17:55.143Z,11.98
2023-01-12T13:20:37.141Z,11.91
2023-01-12T13:23:24.588Z,11.84
2023-01-12T13:25:56.879Z,11.81
2023-01-12T13:28:23.722Z,11.79
2023-01-12T13:30:54.819Z,11.68
2023-01-12T13:33:27.524Z,11.67
2023-01-12T13:35:55.820Z,11.61
2023-01-12T13:38:44.268Z,11.65
2023-01-12T13:41:14.174Z,11.67
2023-01-12T13:43:55.484Z,11.65
2023-01-12T13:46:27.460Z,11.66
2023-01-12T13:48:55.977Z,11.69
2023-01-12T13:51:33.503Z,11.71
2023-01-12T13:54:06.839Z,11.68
2023-01-12T13:56:35.264Z,11.62
2023-01-12T13:59:05.217Z,11.59
2023-01-12T14:01:34.838Z,11.57
2023-01-12T14:04:36.457Z,11.50
2023-01-12T14:07:39.801Z,11.46
2023-01-12T14:10:39.389Z,11.43
2023-01-12T14:13:47.366Z,11.40
2023-01-12T14:16:35.347Z,11.34
2023-01-12T14:20:09.231Z,11.30
2023-01-12T14:22:40.305Z,11.27
2023-01-12T14:25:14.612Z,11.26
2023-01-12T14:27:58.525Z,11.24
2023-01-12T14:30:32.589Z,11.24
2023-01-12T14:32:59.459Z,11.25
2023-01-12T14:35:26.598Z,11.22
2023-01-12T14:37:59.657Z,11.23
2023-01-12T14:40:31.032Z,11.24
2023-01-12T14:43:39.329Z,11.21
2023-01-12T14:46:24.709Z,11.21
2023-01-12T14:49:03.507Z,11.20
2023-01-12T14:51:36.273Z,11.18
2023-01-12T14:54:07.861Z,11.16
2023-01-12T14:56:50.963Z,11.09
2023-01-12T14:59:24.814Z,11.08
2023-01-12T15:02:14.907Z,11.06
2023-01-12T15:05:10.588Z,11.04
2023-01-12T15:07:52.785Z,11.01
2023-01-12T15:10:19.617Z,10.99
2023-01-12T15:12:54.835Z,10.97
2023-01-12T15:15:51.125Z,10.95
2023-01-12T15:18:37.646Z,10.92
2023-01-12T15:21:23.339Z,10.88
2023-01-12T15:24:08.869Z,10.86
2023-01-12T15:26:35.708Z,10.84
2023-01-12T15:29:02.516Z,10.82
2023-01-12T15:31:33.497Z,10.81
2023-01-12T15:34:01.231Z,10.80
2023-01-12T15:36:28.600Z,10.81
2023-01-12T15:38:55.543Z,10.80
2023-01-12T15:41:49.292Z,10.76
2023-01-12T15:44:21.170Z,10.73
2023-01-12T15:46:48.779Z,10.71
2023-01-12T15:49:16.227Z,10.69
2023-01-12T15:51:47.630Z,10.68
2023-01-12T15:54:18.331Z,10.67
2023-01-12T15:56:45.640Z,10.66
2023-01-12T15:59:12.433Z,10.65
2023-01-12T16:01:45.419Z,10.63
2023-01-12T16:04:42.210Z,10.64
2023-01-12T16:07:10.074Z,10.63
2023-01-12T16:09:36.761Z,10.61
2023-01-12T16:12:03.739Z,10.63
2023-01-12T16:14:30.635Z,10.65
2023-01-12T16:16:57.356Z,10.66
2023-01-12T16:19:24.271Z,10.65
2023-01-12T16:21:55.104Z,10.64
2023-01-12T16:24:26.400Z,10.65
2023-01-12T16:26:53.298Z,10.65
2023-01-12T16:29:24.124Z,10.67
2023-01-12T16:31:51.351Z,10.66
2023-01-12T16:34:22.593Z,10.66
2023-01-12T16:36:49.836Z,10.65
2023-01-12T16:39:16.597Z,10.66
2023-01-12T16:41:48.396Z,10.67
2023-01-12T16:44:15.674Z,10.69
2023-01-12T16:46:42.760Z,10.68
2023-01-12T16:49:09.703Z,10.69
2023-01-12T16:51:36.608Z,10.67
2023-01-12T16:54:04.735Z,10.66
2023-01-12T16:56:31.947Z,10.66
2023-01-12T16:58:58.777Z,10.66
2023-01-12T17:01:28.673Z,10.65
2023-01-12T17:03:58.357Z,10.64
2023-01-12T17:06:27.189Z,10.62
2023-01-12T17:08:54.960Z,10.62
2023-01-12T17:11:29.460Z,10.63
2023-01-12T17:14:22.834Z,10.63
2023-01-12T17:16:56.520Z,10.63
2023-01-12T17:19:28.056Z,10.64
2023-01-12T17:21:58.043Z,10.65
2023-01-12T17:24:26.294Z,10.67
2023-01-12T17:26:56.331Z,10.66
2023-01-12T17:29:27.053Z,10.66
2023-01-12T17:32:09.653Z,10.65
2023-01-12T17:34:38.861Z,10.65
2023-01-12T17:37:08.532Z,10.64
2023-01-12T17:39:39.988Z,10.64
2023-01-12T17:42:31.761Z,10.67
2023-01-12T17:44:58.679Z,10.67
2023-01-12T17:47:25.520Z,10.66
2023-01-12T17:49:54.115Z,10.67
2023-01-12T17:52:30.191Z,10.66
2023-01-12T17:55:00.649Z,10.65
2023-01-12T17:57:29.700Z,10.66
2023-01-12T17:59:56.552Z,10.65
2023-01-12T18:02:23.465Z,10.65
2023-01-12T18:04:53.394Z,10.66
2023-01-12T18:07:20.226Z,10.68
2023-01-12T18:09:48.099Z,10.69
2023-01-12T18:12:16.400Z,10.69
2023-01-12T18:14:43.411Z,10.68
2023-01-12T18:17:11.160Z,10.69
2023-01-12T18:19:42.429Z,10.65
2023-01-12T18:22:11.063Z,10.64
2023-01-12T18:24:38.319Z,10.62
2023-01-12T18:27:05.435Z,10.59
2023-01-12T18:29:32.467Z,10.56
2023-01-12T18:31:59.295Z,10.57
2023-01-12T18:34:26.935Z,10.56
2023-01-12T18:36:53.802Z,10.57
2023-01-12T18:39:21.093Z,10.56
2023-01-12T18:42:07.626Z,10.55
2023-01-12T18:44:35.054Z,10.55
2023-01-12T18:47:22.559Z,10.55
2023-01-12T18:49:49.449Z,10.56
2023-01-12T18:52:36.558Z,10.56
2023-01-12T18:55:04.964Z,10.55
2023-01-12T18:57:33.750Z,10.55
2023-01-12T19:00:15.832Z,10.57
2023-01-12T19:02:43.470Z,10.53
2023-01-12T19:05:34.389Z,10.53
2023-01-12T19:08:01.323Z,10.53
2023-01-12T19:10:29.261Z,10.54
2023-01-12T19:13:15.898Z,10.51
2023-01-12T19:16:01.445Z,10.51
2023-01-12T19:18:28.541Z,10.51
2023-01-12T19:21:17.659Z,10.54
2023-01-12T19:24:02.969Z,10.54
2023-01-12T19:26:51.509Z,10.56
2023-01-12T19:29:18.416Z,10.55
2023-01-12T19:31:45.355Z,10.55
2023-01-12T19:34:12.173Z,10.56
2023-01-12T19:36:38.919Z,10.57
2023-01-12T19:39:07.584Z,10.58
2023-01-12T19:41:53.010Z,10.58
2023-01-12T19:44:20.601Z,10.58
2023-01-12T19:46:48.329Z,10.58
2023-01-12T19:49:17.430Z,10.60
2023-01-12T19:51:46.913Z,10.61
2023-01-12T19:54:14.615Z,10.61
2023-01-12T19:56:46.548Z,10.61
2023-01-12T19:59:14.187Z,10.64
2023-01-12T20:01:41.205Z,10.64
2023-01-12T20:04:15.823Z,10.64
2023-01-12T20:06:44.742Z,10.62
2023-01-12T20:09:12.261Z,10.65
2023-01-12T20:11:39.155Z,10.63
2023-01-12T20:14:07.726Z,10.62
2023-01-12T20:16:47.582Z,10.60
2023-01-12T20:19:14.466Z,10.59
2023-01-12T20:21:41.247Z,10.57
2023-01-12T20:24:09.354Z,10.59
2023-01-12T20:26:36.369Z,10.60
2023-01-12T20:29:03.446Z,10.60
2023-01-12T20:31:30.255Z,10.59
2023-01-12T20:33:57.210Z,10.59
2023-01-12T20:36:25.169Z,10.63
2023-01-12T20:38:52.389Z,10.65
2023-01-12T20:41:19.726Z,10.65
2023-01-12T20:43:46.715Z,10.64
2023-01-12T20:46:14.514Z,10.64
2023-01-12T20:48:41.756Z,10.63
2023-01-12T20:51:10.532Z,10.63
2023-01-12T20:53:38.403Z,10.62
2023-01-12T20:56:08.721Z,10.61
2023-01-12T20:58:36.121Z,10.63
2023-01-12T21:01:08.679Z,10.61
2023-01-12T21:03:35.544Z,10.61
2023-01-12T21:06:02.551Z,10.63
2023-01-12T21:08:29.531Z,10.64
2023-01-12T21:10:58.513Z,10.63
2023-01-12T21:13:25.263Z,10.65
2023-01-12T21:16:02.802Z,10.64
2023-01-12T21:18:30.831Z,10.66
2023-01-12T21:20:58.042Z,10.67
2023-01-12T21:23:25.916Z,10.65
2023-01-12T21:25:52.758Z,10.63
2023-01-12T21:28:19.705Z,10.63
2023-01-12T21:30:46.581Z,10.62
2023-01-12T21:33:13.846Z,10.64
2023-01-12T21:35:42.171Z,10.64
2023-01-12T21:38:09.024Z,10.64
2023-01-12T21:40:38.070Z,10.65
2023-01-12T21:43:12.241Z,10.65
2023-01-12T21:45:43.737Z,10.66
2023-01-12T21:48:11.924Z,10.66
2023-01-12T21:50:39.030Z,10.67
2023-01-12T21:53:06.887Z,10.66
2023-01-12T21:55:34.986Z,10.68
2023-01-12T21:58:02.043Z,10.72
2023-01-12T22:00:29.525Z,10.72
2023-01-12T22:02:57.529Z,10.75
2023-01-12T22:05:24.569Z,10.76
2023-01-12T22:07:52.117Z,10.76
2023-01-12T22:10:19.109Z,10.78
2023-01-12T22:12:47.491Z,10.79
2023-01-12T22:15:17.316Z,10.80
2023-01-12T22:17:45.012Z,10.80
2023-01-12T22:20:12.941Z,10.80
2023-01-12T22:22:41.082Z,10.83
2023-01-12T22:25:09.467Z,10.82
2023-01-12T22:27:36.857Z,10.89
2023-01-12T22:30:08.828Z,10.91
2023-01-12T22:32:35.722Z,10.94
2023-01-12T22:35:02.536Z,10.92
2023-01-12T22:37:30.031Z,10.92
2023-01-12T22:39:56.937Z,10.94
2023-01-12T22:42:43.840Z,10.93
2023-01-12T22:45:10.865Z,10.94
2023-01-12T22:47:47.609Z,10.95
2023-01-12T22:50:14.744Z,10.93
2023-01-12T22:52:41.805Z,10.94
2023-01-12T22:55:09.515Z,10.95
2023-01-12T22:57:36.835Z,10.95
2023-01-12T23:00:04.662Z,10.97
2023-01-12T23:02:50.606Z,10.96
2023-01-12T23:05:17.746Z,10.98
2023-01-12T23:07:44.459Z,11.01
2023-01-12T23:10:11.149Z,11.05
2023-01-12T23:12:37.886Z,11.02
2023-01-12T23:15:05.101Z,11.02
2023-01-12T23:17:33.424Z,11.02
2023-01-12T23:20:01.422Z,11.01
2023-01-12T23:22:31.475Z,11.00
2023-01-12T23:24:58.163Z,11.00
2023-01-12T23:27:24.891Z,10.97
2023-01-12T23:29:51.636Z,10.97
2023-01-12T23:32:18.308Z,10.99
2023-01-12T23:34:45.219Z,10.97
2023-01-12T23:37:12.151Z,10.98
2023-01-12T23:39:38.900Z,10.97
2023-01-12T23:42:05.617Z,10.97
2023-01-12T23:44:33.268Z,10.98
2023-01-12T23:47:02.893Z,11.00
2023-01-12T23:49:29.651Z,10.99
2023-01-12T23:51:56.363Z,11.00
2023-01-12T23:54:23.102Z,10.98
2023-01-12T23:56:52.953Z,10.99
2023-01-12T23:59:19.702Z,11.00
